Terminal Aerodrome Forecast
Issued by NWS

Home | Current Version | Previous Version | Text Only | Print | Product List | Glossary On
Versions: 1 2 3 4 5 6 7 8 9 10 11 12 13 14 15
000
FTUS46 KSEW 200536
TAFPAE
TAF
KPAE 200536Z 2006/2106 35008KT P6SM SCT250
     FM201900 32005KT P6SM SCT250
     FM210500 36008KT P6SM SCT250=

USA.gov is the U.S. government's official web portal to all federal, state and local government web resources and services.